sensor_id;sensor_type;location;lat;lon;timestamp;P1;durP1;ratioP1;P2;durP2;ratioP2
41943;SDS011;27636;52.610;13.244;2023-06-10T00:04:16;15.48;;;3.03;;
41943;SDS011;27636;52.610;13.244;2023-06-10T00:09:21;11.73;;;3.85;;
41943;SDS011;27636;52.610;13.244;2023-06-10T00:14:25;11.48;;;4.40;;
41943;SDS011;27636;52.610;13.244;2023-06-10T00:19:29;12.10;;;3.35;;
41943;SDS011;27636;52.610;13.244;2023-06-10T00:24:34;9.77;;;2.67;;
41943;SDS011;27636;52.610;13.244;2023-06-10T00:29:38;7.60;;;3.00;;
41943;SDS011;27636;52.610;13.244;2023-06-10T00:34:42;13.18;;;3.83;;
41943;SDS011;27636;52.610;13.244;2023-06-10T00:39:46;9.38;;;3.40;;
41943;SDS011;27636;52.610;13.244;2023-06-10T00:44:50;9.68;;;3.90;;
41943;SDS011;27636;52.610;13.244;2023-06-10T00:49:55;11.95;;;3.35;;
41943;SDS011;27636;52.610;13.244;2023-06-10T00:55:02;13.02;;;3.72;;
41943;SDS011;27636;52.610;13.244;2023-06-10T01:00:06;7.63;;;3.03;;
41943;SDS011;27636;52.610;13.244;2023-06-10T01:05:13;11.93;;;4.03;;
41943;SDS011;27636;52.610;13.244;2023-06-10T01:10:20;8.75;;;3.28;;
41943;SDS011;27636;52.610;13.244;2023-06-10T01:15:28;8.70;;;3.40;;
41943;SDS011;27636;52.610;13.244;2023-06-10T01:20:32;13.63;;;3.33;;
41943;SDS011;27636;52.610;13.244;2023-06-10T01:25:40;12.38;;;3.80;;
41943;SDS011;27636;52.610;13.244;2023-06-10T01:30:48;7.32;;;3.38;;
41943;SDS011;27636;52.610;13.244;2023-06-10T01:35:59;12.30;;;3.83;;
41943;SDS011;27636;52.610;13.244;2023-06-10T01:41:06;9.88;;;3.33;;
41943;SDS011;27636;52.610;13.244;2023-06-10T01:46:10;11.65;;;3.08;;
41943;SDS011;27636;52.610;13.244;2023-06-10T01:51:14;11.38;;;3.35;;
41943;SDS011;27636;52.610;13.244;2023-06-10T01:56:19;17.38;;;3.65;;
41943;SDS011;27636;52.610;13.244;2023-06-10T02:01:23;11.40;;;3.13;;
41943;SDS011;27636;52.610;13.244;2023-06-10T02:06:27;8.73;;;3.55;;
41943;SDS011;27636;52.610;13.244;2023-06-10T02:11:32;11.30;;;3.40;;
41943;SDS011;27636;52.610;13.244;2023-06-10T02:16:36;17.13;;;3.80;;
41943;SDS011;27636;52.610;13.244;2023-06-10T02:21:40;9.93;;;3.93;;
41943;SDS011;27636;52.610;13.244;2023-06-10T02:26:46;6.00;;;3.17;;
41943;SDS011;27636;52.610;13.244;2023-06-10T02:31:51;12.63;;;3.65;;
41943;SDS011;27636;52.610;13.244;2023-06-10T02:36:56;10.27;;;3.37;;
41943;SDS011;27636;52.610;13.244;2023-06-10T02:42:01;13.90;;;3.38;;
41943;SDS011;27636;52.610;13.244;2023-06-10T02:47:05;15.90;;;3.55;;
41943;SDS011;27636;52.610;13.244;2023-06-10T02:52:11;10.10;;;3.50;;
41943;SDS011;27636;52.610;13.244;2023-06-10T02:57:16;11.27;;;3.47;;
41943;SDS011;27636;52.610;13.244;2023-06-10T03:02:20;11.82;;;3.30;;
41943;SDS011;27636;52.610;13.244;2023-06-10T03:07:27;8.68;;;2.53;;
41943;SDS011;27636;52.610;13.244;2023-06-10T03:12:32;12.25;;;3.53;;
41943;SDS011;27636;52.610;13.244;2023-06-10T03:17:35;12.63;;;4.20;;
41943;SDS011;27636;52.610;13.244;2023-06-10T03:22:39;8.95;;;3.10;;
41943;SDS011;27636;52.610;13.244;2023-06-10T03:27:46;9.40;;;3.20;;
41943;SDS011;27636;52.610;13.244;2023-06-10T03:32:50;7.68;;;3.05;;
41943;SDS011;27636;52.610;13.244;2023-06-10T03:37:57;11.45;;;4.03;;
41943;SDS011;27636;52.610;13.244;2023-06-10T03:43:02;11.93;;;3.47;;
41943;SDS011;27636;52.610;13.244;2023-06-10T03:48:07;11.52;;;3.70;;
41943;SDS011;27636;52.610;13.244;2023-06-10T03:53:19;8.23;;;3.53;;
41943;SDS011;27636;52.610;13.244;2023-06-10T03:58:24;9.90;;;4.20;;
41943;SDS011;27636;52.610;13.244;2023-06-10T04:03:29;13.80;;;4.18;;
41943;SDS011;27636;52.610;13.244;2023-06-10T04:08:33;8.50;;;3.13;;
41943;SDS011;27636;52.610;13.244;2023-06-10T04:13:38;9.65;;;3.65;;
41943;SDS011;27636;52.610;13.244;2023-06-10T04:18:42;21.13;;;3.83;;
41943;SDS011;27636;52.610;13.244;2023-06-10T04:23:47;11.32;;;3.35;;
41943;SDS011;27636;52.610;13.244;2023-06-10T04:28:53;9.30;;;3.78;;
41943;SDS011;27636;52.610;13.244;2023-06-10T04:33:59;13.98;;;4.00;;
41943;SDS011;27636;52.610;13.244;2023-06-10T04:39:04;8.65;;;3.58;;
41943;SDS011;27636;52.610;13.244;2023-06-10T04:44:13;16.02;;;3.50;;
41943;SDS011;27636;52.610;13.244;2023-06-10T04:49:18;7.32;;;3.70;;
41943;SDS011;27636;52.610;13.244;2023-06-10T04:54:22;10.18;;;3.30;;
41943;SDS011;27636;52.610;13.244;2023-06-10T04:59:27;8.82;;;3.15;;
41943;SDS011;27636;52.610;13.244;2023-06-10T05:04:31;7.80;;;3.08;;
41943;SDS011;27636;52.610;13.244;2023-06-10T05:09:35;9.13;;;3.47;;
41943;SDS011;27636;52.610;13.244;2023-06-10T05:14:41;9.95;;;3.55;;
41943;SDS011;27636;52.610;13.244;2023-06-10T05:19:45;9.50;;;3.40;;
41943;SDS011;27636;52.610;13.244;2023-06-10T05:24:50;7.13;;;3.67;;
41943;SDS011;27636;52.610;13.244;2023-06-10T05:29:55;8.50;;;3.63;;
41943;SDS011;27636;52.610;13.244;2023-06-10T05:34:59;7.18;;;3.22;;
41943;SDS011;27636;52.610;13.244;2023-06-10T05:45:10;9.23;;;3.50;;
41943;SDS011;27636;52.610;13.244;2023-06-10T05:50:15;9.38;;;3.90;;
41943;SDS011;27636;52.610;13.244;2023-06-10T05:55:18;9.27;;;3.50;;
41943;SDS011;27636;52.610;13.244;2023-06-10T06:00:23;11.15;;;4.03;;
41943;SDS011;27636;52.610;13.244;2023-06-10T06:05:27;11.75;;;3.90;;
41943;SDS011;27636;52.610;13.244;2023-06-10T06:17:36;9.30;;;3.78;;
41943;SDS011;27636;52.610;13.244;2023-06-10T06:27:43;8.80;;;4.28;;
41943;SDS011;27636;52.610;13.244;2023-06-10T06:32:48;6.82;;;3.83;;
41943;SDS011;27636;52.610;13.244;2023-06-10T06:37:52;8.70;;;4.00;;
41943;SDS011;27636;52.610;13.244;2023-06-10T06:43:01;10.85;;;5.00;;
41943;SDS011;27636;52.610;13.244;2023-06-10T06:48:14;10.98;;;4.40;;
41943;SDS011;27636;52.610;13.244;2023-06-10T06:53:18;12.25;;;3.95;;
41943;SDS011;27636;52.610;13.244;2023-06-10T06:58:22;8.05;;;3.95;;
41943;SDS011;27636;52.610;13.244;2023-06-10T07:03:26;10.00;;;3.80;;
41943;SDS011;27636;52.610;13.244;2023-06-10T07:13:33;10.43;;;3.78;;
41943;SDS011;27636;52.610;13.244;2023-06-10T07:18:38;10.27;;;4.20;;
41943;SDS011;27636;52.610;13.244;2023-06-10T07:23:42;6.75;;;3.85;;
41943;SDS011;27636;52.610;13.244;2023-06-10T07:28:46;9.32;;;4.35;;
41943;SDS011;27636;52.610;13.244;2023-06-10T07:33:51;8.57;;;4.50;;
41943;SDS011;27636;52.610;13.244;2023-06-10T07:38:54;15.40;;;4.95;;
41943;SDS011;27636;52.610;13.244;2023-06-10T07:43:59;8.48;;;4.47;;
41943;SDS011;27636;52.610;13.244;2023-06-10T07:49:06;12.75;;;4.60;;
41943;SDS011;27636;52.610;13.244;2023-06-10T07:59:15;10.23;;;4.35;;
41943;SDS011;27636;52.610;13.244;2023-06-10T08:04:20;9.95;;;4.30;;
41943;SDS011;27636;52.610;13.244;2023-06-10T08:09:24;13.88;;;4.65;;
41943;SDS011;27636;52.610;13.244;2023-06-10T08:14:28;11.87;;;4.90;;
41943;SDS011;27636;52.610;13.244;2023-06-10T08:19:32;9.93;;;4.43;;
41943;SDS011;27636;52.610;13.244;2023-06-10T08:24:36;11.60;;;5.40;;
41943;SDS011;27636;52.610;13.244;2023-06-10T08:29:40;9.67;;;5.30;;
41943;SDS011;27636;52.610;13.244;2023-06-10T08:34:44;11.30;;;4.90;;
41943;SDS011;27636;52.610;13.244;2023-06-10T08:39:48;11.07;;;4.93;;
41943;SDS011;27636;52.610;13.244;2023-06-10T08:50:00;12.30;;;4.93;;
41943;SDS011;27636;52.610;13.244;2023-06-10T08:55:09;10.52;;;4.85;;
41943;SDS011;27636;52.610;13.244;2023-06-10T09:00:17;7.57;;;4.10;;
41943;SDS011;27636;52.610;13.244;2023-06-10T09:05:22;17.17;;;6.60;;
41943;SDS011;27636;52.610;13.244;2023-06-10T09:10:25;12.15;;;4.85;;
41943;SDS011;27636;52.610;13.244;2023-06-10T09:15:29;13.93;;;5.85;;
41943;SDS011;27636;52.610;13.244;2023-06-10T09:20:34;10.38;;;4.75;;
41943;SDS011;27636;52.610;13.244;2023-06-10T09:25:39;18.83;;;6.35;;
41943;SDS011;27636;52.610;13.244;2023-06-10T09:30:42;9.60;;;5.33;;
41943;SDS011;27636;52.610;13.244;2023-06-10T09:35:47;10.10;;;4.68;;
41943;SDS011;27636;52.610;13.244;2023-06-10T09:40:52;10.18;;;4.55;;
41943;SDS011;27636;52.610;13.244;2023-06-10T09:45:57;12.30;;;4.63;;
41943;SDS011;27636;52.610;13.244;2023-06-10T09:51:02;11.83;;;5.00;;
41943;SDS011;27636;52.610;13.244;2023-06-10T09:56:12;11.88;;;5.57;;
41943;SDS011;27636;52.610;13.244;2023-06-10T10:01:15;9.10;;;4.82;;
41943;SDS011;27636;52.610;13.244;2023-06-10T10:06:20;12.03;;;5.03;;
41943;SDS011;27636;52.610;13.244;2023-06-10T10:16:30;9.35;;;4.65;;
41943;SDS011;27636;52.610;13.244;2023-06-10T10:21:43;11.27;;;4.63;;
41943;SDS011;27636;52.610;13.244;2023-06-10T10:26:50;11.10;;;4.47;;
41943;SDS011;27636;52.610;13.244;2023-06-10T10:31:56;9.65;;;4.63;;
41943;SDS011;27636;52.610;13.244;2023-06-10T10:37:05;12.52;;;4.20;;
41943;SDS011;27636;52.610;13.244;2023-06-10T10:42:09;14.30;;;5.22;;
41943;SDS011;27636;52.610;13.244;2023-06-10T10:47:13;11.13;;;4.60;;
41943;SDS011;27636;52.610;13.244;2023-06-10T10:57:23;10.30;;;4.82;;
41943;SDS011;27636;52.610;13.244;2023-06-10T11:02:33;10.80;;;5.07;;
41943;SDS011;27636;52.610;13.244;2023-06-10T11:07:51;8.35;;;4.43;;
41943;SDS011;27636;52.610;13.244;2023-06-10T11:12:57;8.20;;;3.78;;
41943;SDS011;27636;52.610;13.244;2023-06-10T11:23:25;8.55;;;3.95;;
41943;SDS011;27636;52.610;13.244;2023-06-10T11:28:36;9.77;;;4.07;;
41943;SDS011;27636;52.610;13.244;2023-06-10T11:33:40;12.13;;;3.87;;
41943;SDS011;27636;52.610;13.244;2023-06-10T11:43:49;7.18;;;4.18;;
41943;SDS011;27636;52.610;13.244;2023-06-10T11:48:53;10.73;;;3.92;;
41943;SDS011;27636;52.610;13.244;2023-06-10T11:53:59;7.00;;;3.80;;
41943;SDS011;27636;52.610;13.244;2023-06-10T11:59:03;8.00;;;3.95;;
41943;SDS011;27636;52.610;13.244;2023-06-10T12:04:08;7.88;;;4.40;;
41943;SDS011;27636;52.610;13.244;2023-06-10T12:09:21;9.05;;;4.22;;
41943;SDS011;27636;52.610;13.244;2023-06-10T12:20:03;8.27;;;3.97;;
41943;SDS011;27636;52.610;13.244;2023-06-10T12:25:10;8.48;;;4.45;;
41943;SDS011;27636;52.610;13.244;2023-06-10T12:30:18;8.43;;;4.30;;
41943;SDS011;27636;52.610;13.244;2023-06-10T12:35:23;8.60;;;4.30;;
41943;SDS011;27636;52.610;13.244;2023-06-10T12:40:32;9.07;;;4.65;;
41943;SDS011;27636;52.610;13.244;2023-06-10T12:45:37;7.55;;;4.40;;
41943;SDS011;27636;52.610;13.244;2023-06-10T12:50:50;7.60;;;3.72;;
41943;SDS011;27636;52.610;13.244;2023-06-10T12:55:56;11.38;;;3.80;;
41943;SDS011;27636;52.610;13.244;2023-06-10T13:01:00;8.13;;;4.35;;
41943;SDS011;27636;52.610;13.244;2023-06-10T13:11:10;8.13;;;4.97;;
41943;SDS011;27636;52.610;13.244;2023-06-10T13:16:14;9.65;;;5.38;;
41943;SDS011;27636;52.610;13.244;2023-06-10T13:21:17;8.27;;;5.45;;
41943;SDS011;27636;52.610;13.244;2023-06-10T13:26:22;10.50;;;5.82;;
41943;SDS011;27636;52.610;13.244;2023-06-10T13:31:26;13.52;;;5.88;;
41943;SDS011;27636;52.610;13.244;2023-06-10T13:36:29;11.93;;;6.10;;
41943;SDS011;27636;52.610;13.244;2023-06-10T13:41:34;13.30;;;5.60;;
41943;SDS011;27636;52.610;13.244;2023-06-10T13:46:38;10.70;;;4.80;;
41943;SDS011;27636;52.610;13.244;2023-06-10T13:51:41;9.32;;;5.32;;
41943;SDS011;27636;52.610;13.244;2023-06-10T13:56:46;11.10;;;4.47;;
41943;SDS011;27636;52.610;13.244;2023-06-10T14:01:49;11.75;;;5.00;;
41943;SDS011;27636;52.610;13.244;2023-06-10T14:06:53;8.77;;;4.45;;
41943;SDS011;27636;52.610;13.244;2023-06-10T14:11:58;7.70;;;4.75;;
41943;SDS011;27636;52.610;13.244;2023-06-10T14:17:02;10.77;;;5.05;;
41943;SDS011;27636;52.610;13.244;2023-06-10T14:22:07;8.15;;;4.95;;
41943;SDS011;27636;52.610;13.244;2023-06-10T14:27:12;10.55;;;5.75;;
41943;SDS011;27636;52.610;13.244;2023-06-10T14:32:16;5.63;;;3.70;;
41943;SDS011;27636;52.610;13.244;2023-06-10T14:37:19;6.32;;;3.78;;
41943;SDS011;27636;52.610;13.244;2023-06-10T14:42:24;6.88;;;4.05;;
41943;SDS011;27636;52.610;13.244;2023-06-10T14:47:27;7.45;;;4.18;;
41943;SDS011;27636;52.610;13.244;2023-06-10T14:52:31;7.78;;;3.72;;
41943;SDS011;27636;52.610;13.244;2023-06-10T14:57:36;6.90;;;3.88;;
41943;SDS011;27636;52.610;13.244;2023-06-10T15:02:39;7.20;;;3.90;;
41943;SDS011;27636;52.610;13.244;2023-06-10T15:07:43;8.88;;;4.50;;
41943;SDS011;27636;52.610;13.244;2023-06-10T15:12:48;7.70;;;3.97;;
41943;SDS011;27636;52.610;13.244;2023-06-10T15:17:58;6.57;;;3.83;;
41943;SDS011;27636;52.610;13.244;2023-06-10T15:23:01;10.77;;;4.28;;
41943;SDS011;27636;52.610;13.244;2023-06-10T15:28:07;8.50;;;3.72;;
41943;SDS011;27636;52.610;13.244;2023-06-10T15:33:11;6.95;;;3.72;;
41943;SDS011;27636;52.610;13.244;2023-06-10T15:38:15;8.90;;;3.90;;
41943;SDS011;27636;52.610;13.244;2023-06-10T15:43:20;8.23;;;3.67;;
41943;SDS011;27636;52.610;13.244;2023-06-10T15:48:23;9.55;;;3.70;;
41943;SDS011;27636;52.610;13.244;2023-06-10T15:53:26;9.90;;;4.07;;
41943;SDS011;27636;52.610;13.244;2023-06-10T15:58:31;8.25;;;3.92;;
41943;SDS011;27636;52.610;13.244;2023-06-10T16:03:35;8.57;;;4.05;;
41943;SDS011;27636;52.610;13.244;2023-06-10T16:08:39;6.75;;;3.63;;
41943;SDS011;27636;52.610;13.244;2023-06-10T16:13:44;7.00;;;3.85;;
41943;SDS011;27636;52.610;13.244;2023-06-10T16:18:48;13.60;;;4.03;;
41943;SDS011;27636;52.610;13.244;2023-06-10T16:23:52;9.40;;;4.00;;
41943;SDS011;27636;52.610;13.244;2023-06-10T16:28:56;9.18;;;3.92;;
41943;SDS011;27636;52.610;13.244;2023-06-10T16:34:00;6.07;;;3.70;;
41943;SDS011;27636;52.610;13.244;2023-06-10T16:39:03;10.00;;;4.13;;
41943;SDS011;27636;52.610;13.244;2023-06-10T16:44:08;7.38;;;3.70;;
41943;SDS011;27636;52.610;13.244;2023-06-10T16:49:12;6.70;;;3.17;;
41943;SDS011;27636;52.610;13.244;2023-06-10T16:54:16;9.05;;;3.58;;
41943;SDS011;27636;52.610;13.244;2023-06-10T16:59:21;6.28;;;3.45;;
41943;SDS011;27636;52.610;13.244;2023-06-10T17:04:25;7.32;;;3.80;;
41943;SDS011;27636;52.610;13.244;2023-06-10T17:09:28;7.90;;;3.72;;
41943;SDS011;27636;52.610;13.244;2023-06-10T17:14:34;11.57;;;3.67;;
41943;SDS011;27636;52.610;13.244;2023-06-10T17:19:37;7.25;;;3.42;;
41943;SDS011;27636;52.610;13.244;2023-06-10T17:24:40;8.37;;;3.07;;
41943;SDS011;27636;52.610;13.244;2023-06-10T17:29:45;6.25;;;3.08;;
41943;SDS011;27636;52.610;13.244;2023-06-10T17:34:49;7.13;;;3.75;;
41943;SDS011;27636;52.610;13.244;2023-06-10T17:39:52;6.40;;;3.17;;
41943;SDS011;27636;52.610;13.244;2023-06-10T17:44:57;7.30;;;3.13;;
41943;SDS011;27636;52.610;13.244;2023-06-10T17:50:00;7.20;;;3.65;;
41943;SDS011;27636;52.610;13.244;2023-06-10T17:55:04;7.72;;;3.40;;
41943;SDS011;27636;52.610;13.244;2023-06-10T18:00:10;8.93;;;3.75;;
41943;SDS011;27636;52.610;13.244;2023-06-10T18:05:14;7.75;;;3.83;;
41943;SDS011;27636;52.610;13.244;2023-06-10T18:10:18;6.23;;;3.33;;
41943;SDS011;27636;52.610;13.244;2023-06-10T18:15:25;7.07;;;3.60;;
41943;SDS011;27636;52.610;13.244;2023-06-10T18:20:29;7.25;;;3.95;;
41943;SDS011;27636;52.610;13.244;2023-06-10T18:25:33;10.77;;;3.75;;
41943;SDS011;27636;52.610;13.244;2023-06-10T18:30:38;9.40;;;4.22;;
41943;SDS011;27636;52.610;13.244;2023-06-10T18:40:46;7.85;;;3.50;;
41943;SDS011;27636;52.610;13.244;2023-06-10T18:45:51;7.45;;;3.55;;
41943;SDS011;27636;52.610;13.244;2023-06-10T18:50:55;6.38;;;3.47;;
41943;SDS011;27636;52.610;13.244;2023-06-10T18:55:59;7.15;;;3.83;;
41943;SDS011;27636;52.610;13.244;2023-06-10T19:01:07;8.68;;;3.17;;
41943;SDS011;27636;52.610;13.244;2023-06-10T19:06:10;8.90;;;3.35;;
41943;SDS011;27636;52.610;13.244;2023-06-10T19:11:14;6.05;;;3.15;;
41943;SDS011;27636;52.610;13.244;2023-06-10T19:16:19;7.07;;;2.97;;
41943;SDS011;27636;52.610;13.244;2023-06-10T19:21:22;7.05;;;3.28;;
41943;SDS011;27636;52.610;13.244;2023-06-10T19:32:19;10.25;;;3.28;;
41943;SDS011;27636;52.610;13.244;2023-06-10T19:43:23;6.70;;;3.67;;
41943;SDS011;27636;52.610;13.244;2023-06-10T19:48:28;7.25;;;3.47;;
41943;SDS011;27636;52.610;13.244;2023-06-10T19:53:31;6.47;;;3.28;;
41943;SDS011;27636;52.610;13.244;2023-06-10T19:58:35;6.10;;;2.80;;
41943;SDS011;27636;52.610;13.244;2023-06-10T20:03:39;9.65;;;2.95;;
41943;SDS011;27636;52.610;13.244;2023-06-10T20:13:46;5.50;;;2.90;;
41943;SDS011;27636;52.610;13.244;2023-06-10T20:18:51;10.02;;;3.08;;
41943;SDS011;27636;52.610;13.244;2023-06-10T20:28:58;5.05;;;2.35;;
41943;SDS011;27636;52.610;13.244;2023-06-10T20:34:03;5.50;;;2.28;;
41943;SDS011;27636;52.610;13.244;2023-06-10T20:39:06;7.72;;;2.33;;
41943;SDS011;27636;52.610;13.244;2023-06-10T20:44:10;6.03;;;2.03;;
41943;SDS011;27636;52.610;13.244;2023-06-10T20:49:18;6.32;;;2.28;;
41943;SDS011;27636;52.610;13.244;2023-06-10T20:54:21;5.82;;;2.13;;
41943;SDS011;27636;52.610;13.244;2023-06-10T20:59:24;4.20;;;1.80;;
41943;SDS011;27636;52.610;13.244;2023-06-10T21:04:29;11.70;;;4.10;;
41943;SDS011;27636;52.610;13.244;2023-06-10T21:09:33;7.57;;;2.00;;
41943;SDS011;27636;52.610;13.244;2023-06-10T21:14:37;4.85;;;1.83;;
41943;SDS011;27636;52.610;13.244;2023-06-10T21:19:42;5.32;;;1.85;;
41943;SDS011;27636;52.610;13.244;2023-06-10T21:24:45;4.90;;;2.20;;
41943;SDS011;27636;52.610;13.244;2023-06-10T21:29:55;5.53;;;2.35;;
41943;SDS011;27636;52.610;13.244;2023-06-10T21:42:13;7.70;;;3.20;;
41943;SDS011;27636;52.610;13.244;2023-06-10T21:47:17;8.90;;;2.78;;
41943;SDS011;27636;52.610;13.244;2023-06-10T21:52:20;12.00;;;2.50;;
41943;SDS011;27636;52.610;13.244;2023-06-10T21:57:25;9.55;;;2.25;;
41943;SDS011;27636;52.610;13.244;2023-06-10T22:02:29;6.80;;;2.22;;
41943;SDS011;27636;52.610;13.244;2023-06-10T22:07:33;8.52;;;2.22;;
41943;SDS011;27636;52.610;13.244;2023-06-10T22:12:38;6.07;;;2.33;;
41943;SDS011;27636;52.610;13.244;2023-06-10T22:17:42;6.50;;;2.40;;
41943;SDS011;27636;52.610;13.244;2023-06-10T22:22:46;5.57;;;2.50;;
41943;SDS011;27636;52.610;13.244;2023-06-10T22:27:51;8.55;;;2.60;;
41943;SDS011;27636;52.610;13.244;2023-06-10T22:32:55;6.78;;;2.70;;
41943;SDS011;27636;52.610;13.244;2023-06-10T22:37:58;6.55;;;3.30;;
41943;SDS011;27636;52.610;13.244;2023-06-10T22:43:03;8.27;;;3.55;;
41943;SDS011;27636;52.610;13.244;2023-06-10T22:48:07;7.43;;;3.75;;
41943;SDS011;27636;52.610;13.244;2023-06-10T22:53:10;7.40;;;3.35;;
41943;SDS011;27636;52.610;13.244;2023-06-10T22:58:15;6.25;;;3.38;;
41943;SDS011;27636;52.610;13.244;2023-06-10T23:03:22;6.00;;;2.55;;
41943;SDS011;27636;52.610;13.244;2023-06-10T23:08:26;7.15;;;3.03;;
41943;SDS011;27636;52.610;13.244;2023-06-10T23:13:30;7.18;;;3.00;;
41943;SDS011;27636;52.610;13.244;2023-06-10T23:18:34;7.95;;;3.22;;
41943;SDS011;27636;52.610;13.244;2023-06-10T23:23:37;7.45;;;2.72;;
41943;SDS011;27636;52.610;13.244;2023-06-10T23:28:42;11.82;;;3.60;;
41943;SDS011;27636;52.610;13.244;2023-06-10T23:33:46;6.38;;;2.90;;
41943;SDS011;27636;52.610;13.244;2023-06-10T23:38:52;7.68;;;2.88;;
41943;SDS011;27636;52.610;13.244;2023-06-10T23:43:56;6.65;;;3.05;;
41943;SDS011;27636;52.610;13.244;2023-06-10T23:49:00;5.38;;;2.33;;
41943;SDS011;27636;52.610;13.244;2023-06-10T23:54:04;6.18;;;2.47;;
41943;SDS011;27636;52.610;13.244;2023-06-10T23:59:09;8.75;;;2.55;;
